Tiempo atmosférico en la estación meteorológica de Vinaròs, Castelló/Castellón (110 m.)



Fecha
DESCASC
Temp. máxima en grados centígrados (hora)
DESCASC
Temp. mínima en grados centígrados (hora)
DESCASC
Temp. media en grados centígrados
DESCASC
Racha de viento máxima en m/sg (hora)
DESCASC
Velocidad máxima media en intervalos de 10 minutos(hora)
DESCASC
Precipitaciones diarias en mm
DESCASC
Precipitaciones de 00:00 a 06:00 en mm
DESCASC
Precipitaciones de 06:00 a 12:00 en mm
DESCASC
Precipitaciones de 12:00 a 18:00 en mm
DESCASC
Precipitaciones de 18:00 a 24:00 en mm
DESCASC
23-06-2019 29.5 (15:40) 17 (06:30) 23.3 9.17 (15:30) 5.28 (17:40) 0 0 0 0 0
22-06-2019 29.1 (13:10) 15.9 (06:30) 22.5 10 (16:00) 5.83 (16:00) 0 0 0 0 0
21-06-2019 29.3 (15:10) 19.2 (23:50) 24.3 9.72 (16:00) 6.11 (15:50) 0 0 0 0 0
20-06-2019 27.8 (15:00) 18.8 (00:00) 23.3 20.28 (14:40) 6.67 (15:50) 0 0 0 0 0
19-06-2019 30.5 (17:20) 15.8 (00:00) 23.2 6.67 (17:30) 3.89 (17:00) 0 0 0 0 0
18-06-2019 28.9 (16:00) 15.2 (00:00) 22 10.56 (16:20) 6.11 (16:40) 0 0 0 0 0
17-06-2019 27.5 (15:00) 14.5 (00:00) 21 8.89 (18:00) 5.28 (18:40) 0 0 0 0 0
16-06-2019 27.1 (13:00) 16.2 (00:00) 21.7 8.89 (15:20) 5.28 (16:00) 0 0 0 0 0
15-06-2019 28.8 (14:10) 15.8 (00:00) 22.3 17.22 (13:20) 4.72 (15:10) 0 0 0 0 0
14-06-2019 27.6 (11:50) 15.5 (00:00) 21.6 8.61 (18:00) 5 (18:00) 0 0 0 0 0
13-06-2019 23.7 (17:10) 12.5 (00:00) 18.1 8.61 (16:10) 5.28 (14:10) 0 0 0 0 0
12-06-2019 23.9 (16:50) 7.8 (00:00) 15.8 8.06 (14:20) 4.17 (14:40) 0 0 0 0 0
11-06-2019 21.3 (14:50) 11.5 (00:00) 16.4 13.33 (10:50) 4.44 (15:10) 0.4 0 0 0.3 0.1
10-06-2019 29.3 (13:40) 13.3 (00:00) 21.3 8.33 (14:10) 4.72 (15:40) 0.1 0 0 0 0.1
09-06-2019 26 (19:00) 15.1 (00:00) 20.6 6.11 (19:40) 3.06 (19:40) 0 0 0 0 0
08-06-2019 24.7 (13:00) 14.1 (00:00) 19.4 9.44 (14:50) 4.72 (14:30) 0 0 0 0 0
07-06-2019 27.4 (17:20) 14.8 (00:00) 21.1 7.78 (11:50) 5 (12:00) 0 0 0 0 0
06-06-2019 25.5 (15:20) 11.5 (00:00) 18.5 9.44 (16:10) 5 (13:20) 0 0 0 0 0
05-06-2019 26.3 (11:40) 16.3 (00:00) 21.3 14.17 (17:30) 7.78 (17:30) 7.5 0 0 7.5 0
04-06-2019 26 (14:40) 12.7 (00:00) 19.3 8.06 (16:00) 4.44 (14:50) 0 0 0 0 0
03-06-2019 27.3 (16:30) 13 (00:00) 20.1 9.44 (15:40) 5.83 (16:40) 0 0 0 0 0
02-06-2019 27.8 (15:20) 12.8 (00:00) 20.3 9.44 (16:50) 6.11 (16:50) 0 0 0 0 0
01-06-2019 27.4 (14:00) 13.5 (00:00) 20.4 9.17 (15:20) 5.56 (16:50) 0 0 0 0 0
31-05-2019 26 (11:30) 11.8 (00:00) 18.9 9.44 (16:20) 5 (14:50) 0 0 0 0 0
30-05-2019 26.7 (15:10) 12.5 (00:00) 19.6 8.06 (17:20) 4.72 (17:10) 0 0 0 0 0
29-05-2019 28.6 (16:50) 14.8 (00:00) 21.7 17.5 (00:50) 9.17 (00:50) 0 0 0 0 0
28-05-2019 29 (16:10) 15.5 (00:00) 22.3 16.39 (23:40) 8.89 (23:40) 0 0 0 0 0
27-05-2019 26.4 (13:20) 13.2 (00:00) 19.8 10 (02:20) 4.44 (23:59) 0 0 0 0 0

Gráficas

Temp. máximas Temp. mínimas Temp. medias Precipitaciones Rachas de viento máximas Velocidades máximas media en intervalos de 10 minutos

Datos horarios

Fecha y hora oficial Temperatura (ºC) Velocidad del viento (km/h) Dirección del viento Racha (km/h) Dirección de racha Precipitación (mm) Presión (hPa) Tendencia (hPa) Humedad (%)
2019-06-25 23:00:00 22.7 7 Nordeste 18 Norte 0 -- -- 74
2019-06-25 22:00:00 23.1 11 Nordeste 19 Nordeste 0 -- -- 69
2019-06-25 21:00:00 23.9 12 Nordeste 19 Nordeste 0 -- -- 64
2019-06-25 20:00:00 25.5 10 Sudeste 21 Sudeste 0 -- -- 62
2019-06-25 19:00:00 26.6 11 Sudeste 30 Este 0 -- -- 57
2019-06-25 18:00:00 27 18 Sudeste 30 Sudeste 0 -- -- 55
2019-06-25 17:00:00 28.9 12 Sudeste 24 Sudeste 0 -- -- 44
2019-06-25 16:00:00 28.7 12 Nordeste 22 Nordeste 0 -- -- 44
2019-06-25 15:00:00 26.7 8 Este 25 Sudeste 0 -- -- 51
2019-06-25 14:00:00 25.6 10 Nordeste 28 Nordeste 0 -- -- 56
2019-06-25 13:00:00 25.8 13 Nordeste 27 Nordeste 0 -- -- 54
2019-06-25 12:00:00 23.8 13 Nordeste 27 Nordeste 0 -- -- 66
2019-06-25 11:00:00 22.5 14 Nordeste 23 Nordeste 0 -- -- 72
2019-06-25 10:00:00 22.1 10 Nordeste 18 Nordeste 0 -- -- 75
2019-06-25 09:00:00 22 12 Nordeste 19 Nordeste 0 -- -- 73
2019-06-25 08:00:00 22.4 10 Norte 18 Norte 0 -- -- 72
2019-06-25 07:00:00 22.1 10 Nordeste 19 Nordeste 0 -- -- 74
2019-06-25 06:00:00 22.1 9 Norte 17 Nordeste 0 -- -- 75
2019-06-25 05:00:00 22 10 Nordeste 20 Nordeste 0 -- -- 75
2019-06-25 04:00:00 22.1 12 Nordeste 19 Nordeste 0 -- -- 75
2019-06-25 03:00:00 22.3 10 Nordeste 16 Norte 0 -- -- 74
2019-06-25 02:00:00 22.2 8 Nordeste 13 Nordeste 0 -- -- 73
2019-06-25 01:00:00 21.9 6 Norte 16 Nordeste 0 -- -- 75
2019-06-25 00:00:00 21.3 9 Nordeste 15 Nordeste 0 -- -- 75
2019-06-24 23:00:00 21.9 8 Norte 14 Nordeste 0 -- -- 74
2019-06-24 22:00:00 22.7 8 Nordeste 14 Nordeste 0 -- -- 67
2019-06-24 21:00:00 23.2 5 Este 18 Este 0 -- -- 64
2019-06-24 20:00:00 24.6 10 Este 28 Sudeste 0 -- -- 55
2019-06-24 19:00:00 25.7 13 Este 29 Sudeste 0 -- -- 45
2019-06-24 18:00:00 25.5 18 Este 34 Sudeste 0 -- -- 38
2019-06-24 17:00:00 28.4 16 Este 39 Sudeste 0 -- -- 34
2019-06-24 16:00:00 28.9 19 Este 40 Sudeste 0 -- -- 34
2019-06-24 15:00:00 28.7 21 Sudeste 40 Sudeste 0 -- -- 35
2019-06-24 14:00:00 30.3 18 Este 36 Este 0 -- -- 25
2019-06-24 13:00:00 29.7 17 Este 31 Este 0 -- -- 26
2019-06-24 12:00:00 29.7 15 Sudeste 27 Sudeste 0 -- -- 26
2019-06-24 11:00:00 28.2 6 Nordeste 14 Norte 0 -- -- 34
2019-06-24 10:00:00 26.3 5 Nordeste 11 Nordeste 0 -- -- 42
2019-06-24 09:00:00 23.7 6 Nordeste 11 Nordeste 0 -- -- 57
2019-06-24 08:00:00 22.7 3 Norte 11 Norte 0 -- -- 73
2019-06-24 07:00:00 17.7 6 Norte 10 Norte 0 -- -- 79
2019-06-24 06:00:00 17.3 5 Norte 12 Norte 0 -- -- 78
2019-06-24 05:00:00 16.6 5 Norte 9 Noroeste 0 -- -- 82
2019-06-24 04:00:00 17.7 0 Calma 7 Nordeste 0 -- -- 82
2019-06-24 03:00:00 18.5 3 Norte 6 Norte 0 -- -- 82
2019-06-24 02:00:00 19.2 0 Calma 5 Oeste 0 -- -- 82
2019-06-24 01:00:00 20.2 4 Sur 13 Sudeste 0 -- -- 82
2019-06-24 00:00:00 20.5 6 Sur 14 Sur 0 -- -- 82
2019-06-23 23:00:00 21 7 Sur 11 Sur 0 -- -- 82
2019-06-23 22:00:00 21.3 6 Sur 13 Sudeste 0 -- -- 79
2019-06-23 21:00:00 22.8 8 Sur 18 Sudeste 0 -- -- 67
2019-06-23 20:00:00 24.5 11 Sur 22 Sur 0 -- -- 50
2019-06-23 19:00:00 26.5 13 Sur 29 Sur 0 -- -- 41
2019-06-23 18:00:00 26.5 19 Sur 31 Sur 0 -- -- 44
2019-06-23 17:00:00 27.2 17 Sur 30 Sur 0 -- -- 43
2019-06-23 16:00:00 28.4 17 Sur 33 Sudeste 0 -- -- 41
2019-06-23 15:00:00 27.9 18 Sur 31 Sudeste 0 -- -- 43
2019-06-23 14:00:00 27.8 17 Sur 29 Sur 0 -- -- 45
2019-06-23 13:00:00 26.2 15 Sur 30 Este 0 -- -- 48
2019-06-23 12:00:00 28.7 13 Sur 22 Sur 0 -- -- 41
2019-06-23 11:00:00 27.1 9 Sur 17 Sur 0 -- -- 45
2019-06-23 10:00:00 25.6 7 Sur 15 Sudeste 0 -- -- 48
2019-06-23 09:00:00 23.7 3 Sur 6 Sur 0 -- -- 61
2019-06-23 08:00:00 20.6 0 Calma 5 Sur 0 -- -- 70
2019-06-23 07:00:00 17.6 0 Calma 6 Nordeste 0 -- -- 78
2019-06-23 06:00:00 17.5 5 Nordeste 7 Nordeste 0 -- -- 79
2019-06-23 05:00:00 17.9 5 Nordeste 7 Nordeste 0 -- -- 77
2019-06-23 04:00:00 18.9 3 Nordeste 6 Nordeste 0 -- -- 77
2019-06-23 03:00:00 18.9 2 Norte 6 Oeste 0 -- -- 79
2019-06-23 02:00:00 19 2 Nordeste 6 Este 0 -- -- 79
2019-06-23 01:00:00 19.4 3 Sudoeste 6 Sudeste 0 -- -- 79
2019-06-23 00:00:00 19.8 4 Sudoeste 7 Sur 0 -- -- 79
2019-06-22 23:00:00 20.7 0 Calma 10 Sur 0 -- -- 76
2019-06-22 22:00:00 21.5 7 Sur 14 Sur 0 -- -- 71
2019-06-22 21:00:00 22.7 10 Sudeste 19 Sur 0 -- -- 60
2019-06-22 20:00:00 24.3 10 Sur 24 Sur 0 -- -- 49
2019-06-22 19:00:00 24.4 15 Sur 29 Sur 0 -- -- 44
2019-06-22 18:00:00 25.2 17 Sudoeste 32 Sudoeste 0 -- -- 41
2019-06-22 17:00:00 26.9 18 Sur 34 Sur 0 -- -- 40
2019-06-22 16:00:00 26.1 21 Sur 36 Sur 0 -- -- 43
2019-06-22 15:00:00 25.9 17 Sur 29 Sur 0 -- -- 42
2019-06-22 14:00:00 26.4 16 Sur 30 Sur 0 -- -- 38
2019-06-22 13:00:00 27.8 13 Sur 25 Sur 0 -- -- 37
2019-06-22 12:00:00 26.8 14 Sur 23 Sudeste 0 -- -- 38
2019-06-22 11:00:00 26.8 7 Sur 18 Sur 0 -- -- 37
2019-06-22 10:00:00 24.8 6 Sudoeste 15 Sudoeste 0 -- -- 38
2019-06-22 09:00:00 25.5 5 Noroeste 9 Oeste 0 -- -- 35
2019-06-22 08:00:00 21.8 4 Norte 9 Noroeste 0 -- -- 43
2019-06-22 07:00:00 16.3 4 Norte 9 Norte 0 -- -- 65
2019-06-22 06:00:00 16.1 5 Nordeste 13 Noroeste 0 -- -- 68
2019-06-22 05:00:00 17.1 6 Norte 12 Norte 0 -- -- 63
2019-06-22 04:00:00 18 4 Norte 9 Nordeste 0 -- -- 80
2019-06-22 03:00:00 18.4 5 Norte 10 Norte 0 -- -- 79
2019-06-22 02:00:00 19.2 5 Norte 9 Nordeste 0 -- -- 79
2019-06-22 01:00:00 19.5 4 Norte 8 Norte 0 -- -- 77
2019-06-22 00:00:00 20 5 Norte 8 Norte 0 -- -- 77
2019-06-21 23:00:00 20.2 2 Sudoeste 7 Sudoeste 0 -- -- 76
2019-06-21 22:00:00 20.9 4 Sur 14 Sudeste 0 -- -- 72
2019-06-21 21:00:00 22.2 6 Sudeste 13 Sudeste 0 -- -- 63
2019-06-21 20:00:00 23.1 7 Sur 18 Sur 0 -- -- 60
2019-06-21 19:00:00 23 9 Sudeste 26 Sur 0 -- -- 61
2019-06-21 18:00:00 23.4 12 Sur 27 Sudeste 0 -- -- 57
2019-06-21 17:00:00 25 19 Sudeste 32 Sudeste 0 -- -- 50
2019-06-21 16:00:00 27.1 21 Sudeste 35 Sudeste 0 -- -- 43
2019-06-21 15:00:00 29 12 Nordeste 32 Nordeste 0 -- -- 36
2019-06-21 14:00:00 27.2 13 Nordeste 25 Nordeste 0 -- -- 36
2019-06-21 13:00:00 27.4 13 Nordeste 27 Nordeste 0 -- -- 37
2019-06-21 12:00:00 26.1 13 Nordeste 24 Nordeste 0 -- -- 40
2019-06-21 11:00:00 25.1 14 Nordeste 28 Nordeste 0 -- -- 44
2019-06-21 10:00:00 23.7 12 Nordeste 24 Nordeste 0 -- -- 47
2019-06-21 09:00:00 21.4 12 Nordeste 22 Nordeste 0 -- -- 54
2019-06-21 08:00:00 21.8 10 Nordeste 19 Nordeste 0 -- -- 62
2019-06-21 07:00:00 20.3 11 Nordeste 21 Nordeste 0 -- -- 70
2019-06-21 06:00:00 20.5 10 Nordeste 18 Nordeste 0 -- -- 65
2019-06-21 05:00:00 20.5 8 Nordeste 15 Nordeste 0 -- -- 69
2019-06-21 04:00:00 20.7 8 Nordeste 14 Nordeste 0 -- -- 70
2019-06-21 03:00:00 20.6 8 Nordeste 14 Norte 0 -- -- 71
2019-06-21 02:00:00 20.1 6 Norte 15 Nordeste 0 -- -- 72
2019-06-21 01:00:00 20.3 8 Nordeste 17 Nordeste 0 -- -- 72
2019-06-21 00:00:00 20.7 8 Nordeste 14 Nordeste 0 -- -- 72
2019-06-20 23:00:00 20.8 5 Norte 9 Norte 0 -- -- 67
2019-06-20 22:00:00 21.3 3 Norte 17 Este 0 -- -- 67
2019-06-20 21:00:00 22.1 10 Nordeste 18 Este 0 -- -- 61
2019-06-20 20:00:00 22.7 13 Sudeste 29 Sudeste 0 -- -- 57
2019-06-20 19:00:00 23.9 18 Sudeste 35 Sudeste 0 -- -- 52
2019-06-20 18:00:00 23.7 21 Sudeste 35 Este 0 -- -- 45
2019-06-20 17:00:00 25.9 20 Este 37 Sudeste 0 -- -- 34
2019-06-20 16:00:00 26.3 21 Este 43 Este 0 -- -- 40
2019-06-20 15:00:00 27.1 22 Este 73 Este 0 -- -- 38
2019-06-20 14:00:00 27.4 21 Sudeste 37 Sudeste 0 -- -- 39
2019-06-20 13:00:00 26.9 20 Sudeste 34 Sudeste 0 -- -- 38
2019-06-20 12:00:00 26.3 21 Sudeste 34 Sudeste 0 -- -- 50
2019-06-20 11:00:00 24.8 16 Sudeste 31 Sudeste 0 -- -- 55
2019-06-20 10:00:00 24.1 10 Nordeste 23 Nordeste 0 -- -- 51
2019-06-20 09:00:00 22.8 13 Nordeste 23 Nordeste 0 -- -- 58
2019-06-20 08:00:00 21.5 7 Nordeste 13 Nordeste 0 -- -- 73
2019-06-20 07:00:00 19.7 4 Norte 10 Norte 0 -- -- 80
2019-06-20 06:00:00 20.1 4 Norte 10 Nordeste 0 -- -- 79
2019-06-20 05:00:00 19.1 4 Nordeste 8 Norte 0 -- -- 80
2019-06-20 04:00:00 19.6 5 Nordeste 10 Este 0 -- -- 79
2019-06-20 03:00:00 19.6 4 Norte 6 Oeste 0 -- -- 81
2019-06-20 02:00:00 19.7 3 Oeste 5 Sudoeste 0 -- -- 79
2019-06-20 01:00:00 19.3 0 Calma 5 Noroeste 0 -- -- 79
2019-06-20 00:00:00 21 3 Nordeste 9 Este 0 -- -- 76
2019-06-19 23:00:00 20.9 5 Este 8 Nordeste 0 -- -- 81
2019-06-19 22:00:00 21 4 Sudeste 10 Sur 0 -- -- 79
2019-06-19 21:00:00 22.7 7 Sur 14 Sudoeste 0 -- -- 70
2019-06-19 20:00:00 24.7 8 Sur 19 Sur 0 -- -- 57
2019-06-19 19:00:00 27.2 12 Sur 22 Sur 0 -- -- 41
2019-06-19 18:00:00 27.6 13 Sur 24 Sur 0 -- -- 40
2019-06-19 17:00:00 29.2 14 Sur 22 Sur 0 -- -- 34
2019-06-19 16:00:00 28.6 11 Sur 23 Sur 0 -- -- 40
2019-06-19 15:00:00 29.5 11 Sur 23 Sudeste 0 -- -- 42
2019-06-19 14:00:00 27.2 12 Sur 22 Sudeste 0 -- -- 46
2019-06-19 13:00:00 27.9 10 Sur 22 Sudeste 0 -- -- 44
2019-06-19 12:00:00 26.7 7 Sur 21 Sur 0 -- -- 47
2019-06-19 11:00:00 26.5 10 Sur 18 Sur 0 -- -- 47
2019-06-19 10:00:00 24.1 5 Este 12 Este 0 -- -- 51
2019-06-19 09:00:00 22.4 6 Nordeste 12 Norte 0 -- -- 60
2019-06-19 08:00:00 19.7 5 Norte 8 Norte 0 -- -- 67
2019-06-19 07:00:00 17.4 6 Norte 12 Nordeste 0 -- -- 80
2019-06-19 06:00:00 17.5 7 Nordeste 12 Nordeste 0 -- -- 77
2019-06-19 05:00:00 17.8 7 Nordeste 11 Nordeste 0 -- -- 79
2019-06-19 04:00:00 16.4 3 Norte 5 Norte 0 -- -- 77
2019-06-19 03:00:00 16.2 0 Calma 6 Sur 0 -- -- 77
2019-06-19 02:00:00 16.9 3 Sur 5 Sur 0 -- -- 67
2019-06-19 01:00:00 17.4 4 Sudeste 10 Sur 0 -- -- 69
2019-06-19 00:00:00 17.9 7 Sur 10 Sur 0 -- -- 69
2019-06-18 23:00:00 19.2 5 Sur 12 Sur 0 -- -- 63
2019-06-18 22:00:00 19.9 9 Sur 20 Sur 0 -- -- 58
2019-06-18 21:00:00 21.8 12 Sur 21 Sur 0 -- -- 50
2019-06-18 20:00:00 24.4 12 Sur 30 Sur 0 -- -- 38
2019-06-18 19:00:00 25.2 17 Sur 33 Sur 0 -- -- 36
2019-06-18 18:00:00 25.5 18 Sur 36 Sur 0 -- -- 38
2019-06-18 17:00:00 26.5 20 Sur 38 Sur 0 -- -- 36
2019-06-18 16:00:00 27.6 20 Sur 37 Sudoeste 0 -- -- 34
2019-06-18 15:00:00 27.5 15 Sur 27 Sudeste 0 -- -- 43
2019-06-18 14:00:00 26.9 13 Sur 25 Sur 0 -- -- 46
2019-06-18 13:00:00 25.7 13 Sur 25 Sur 0 -- -- 50
2019-06-18 12:00:00 25.1 10 Sur 20 Sur 0 -- -- 53
2019-06-18 11:00:00 24.5 9 Sur 22 Sur 0 -- -- 53
2019-06-18 10:00:00 24.2 7 Sudeste 14 Sur 0 -- -- 56
2019-06-18 09:00:00 21.1 5 Sur 10 Sur 0 -- -- 68
2019-06-18 08:00:00 21.1 3 Noroeste 8 Noroeste 0 -- -- 59
2019-06-18 07:00:00 16.1 3 Noroeste 6 Norte 0 -- -- 70
2019-06-18 06:00:00 15.6 3 Norte 6 Noroeste 0 -- -- 72
2019-06-18 05:00:00 16.9 0 Calma 4 Este 0 -- -- 73
2019-06-18 04:00:00 17.3 4 Sudeste 6 Sudeste 0 -- -- 66
2019-06-18 03:00:00 17.2 3 Este 6 Sudeste 0 -- -- 61
2019-06-18 02:00:00 17.4 4 Sudeste 6 Sudeste 0 -- -- 60
2019-06-18 01:00:00 18 0 Calma 7 Sur 0 -- -- 61
2019-06-18 00:00:00 18.3 5 Sur 7 Sur 0 -- -- 61
2019-06-17 23:00:00 19.4 3 Sudoeste 9 Sudoeste 0 -- -- 58
2019-06-17 22:00:00 20.2 7 Sur 12 Sur 0 -- -- 59
2019-06-17 21:00:00 22.3 9 Sur 22 Sur 0 -- -- 46
2019-06-17 20:00:00 24.1 15 Sur 31 Sur 0 -- -- 41
2019-06-17 19:00:00 25.3 17 Sur 29 Sur 0 -- -- 40
2019-06-17 18:00:00 25.4 17 Sur 32 Sudoeste 0 -- -- 38
2019-06-17 17:00:00 26 15 Sur 28 Sudeste 0 -- -- 40
2019-06-17 16:00:00 26.9 15 Sur 26 Sur 0 -- -- 43
2019-06-17 15:00:00 26.6 13 Sur 27 Sudeste 0 -- -- 44
2019-06-17 14:00:00 26.7 12 Sur 24 Sur 0 -- -- 47
2019-06-17 13:00:00 25.8 12 Sur 22 Sur 0 -- -- 48
2019-06-17 12:00:00 25.8 10 Sur 19 Sur 0 -- -- 49
2019-06-17 11:00:00 24 10 Sudeste 17 Sudeste 0 -- -- 50
2019-06-17 10:00:00 23.5 5 Sudeste 13 Sudeste 0 -- -- 50
2019-06-17 09:00:00 22.2 3 Nordeste 8 Nordeste 0 -- -- 54
2019-06-17 08:00:00 19.7 4 Nordeste 9 Norte 0 -- -- 61
2019-06-17 07:00:00 15.3 6 Norte 10 Norte 0 -- -- 79
2019-06-17 06:00:00 14.9 0 Calma 8 Nordeste 0 -- -- 79
2019-06-17 05:00:00 15.3 4 Norte 6 Noroeste 0 -- -- 76
2019-06-17 04:00:00 15.7 4 Nordeste 6 Nordeste 0 -- -- 74
2019-06-17 03:00:00 17.1 0 Calma 9 Norte 0 -- -- 70
2019-06-17 02:00:00 17.2 5 Nordeste 12 Norte 0 -- -- 75
2019-06-17 01:00:00 17.3 6 Noroeste 10 Noroeste 0 -- -- 76
2019-06-17 00:00:00 18.5 2 Sur 10 Sur 0 -- -- 77
2019-06-16 23:00:00 20.7 6 Sur 13 Sur 0 -- -- 75
2019-06-16 22:00:00 19.5 9 Sur 14 Sudeste 0 -- -- 67
2019-06-16 21:00:00 20.5 6 Sur 20 Sur 0 -- -- 57
2019-06-16 20:00:00 21.4 13 Sur 24 Sur 0 -- -- 53
2019-06-16 19:00:00 21.8 14 Sur 25 Sur 0 -- -- 49
2019-06-16 18:00:00 23.2 13 Sur 27 Sudoeste 0 -- -- 43
2019-06-16 17:00:00 24.3 16 Sur 28 Sudeste 0 -- -- 39
2019-06-16 16:00:00 24.2 19 Sur 32 Sur 0 -- -- 38
2019-06-16 15:00:00 25.3 17 Sur 30 Sudeste 0 -- -- 37
2019-06-16 14:00:00 25.9 17 Sur 31 Sur 0 -- -- 35
2019-06-16 13:00:00 26.4 13 Sur 26 Sur 0 -- -- 34
2019-06-16 12:00:00 25.6 14 Sur 27 Sudeste 0 -- -- 38
2019-06-16 11:00:00 23.6 8 Sudoeste 16 Sudoeste 0 -- -- 38
2019-06-16 10:00:00 23.7 2 Oeste 9 Oeste 0 -- -- 43
2019-06-16 09:00:00 22.9 3 Norte 9 Nordeste 0 -- -- 53
2019-06-16 08:00:00 20.2 5 Norte 9 Norte 0 -- -- 68
2019-06-16 07:00:00 16.3 6 Norte 9 Norte 0 -- -- 82
2019-06-16 06:00:00 16.9 5 Norte 9 Noroeste 0 -- -- 81
2019-06-16 05:00:00 17.1 4 Norte 7 Norte 0 -- -- 81
2019-06-16 04:00:00 17.1 4 Norte 8 Norte 0 -- -- 81
2019-06-16 03:00:00 17.3 4 Nordeste 10 Nordeste 0 -- -- 79
2019-06-16 02:00:00 18 6 Nordeste 10 Nordeste 0 -- -- 78
2019-06-16 01:00:00 18 4 Norte 7 Noroeste 0 -- -- 77
2019-06-16 00:00:00 18.6 2 Oeste 15 Este 0 -- -- 67
2019-06-15 23:00:00 20.1 3 Este 21 Nordeste 0 -- -- 55
2019-06-15 22:00:00 20.8 3 Nordeste 7 Sudeste 0 -- -- 40
2019-06-15 21:00:00 22.4 6 Sudeste 17 Sur 0 -- -- 35
2019-06-15 20:00:00 25.1 8 Sur 19 Sudeste 0 -- -- 28
2019-06-15 19:00:00 25.8 13 Sur 22 Sur 0 -- -- 27
2019-06-15 18:00:00 26.3 13 Sur 23 Sudoeste 0 -- -- 27
2019-06-15 17:00:00 27.5 14 Sur 24 Sur 0 -- -- 27
2019-06-15 16:00:00 27.4 14 Sudoeste 29 Sur 0 -- -- 27
2019-06-15 15:00:00 27.3 17 Sudoeste 27 Sudoeste 0 -- -- 28
2019-06-15 14:00:00 27.9 14 Sur 62 Sur 0 -- -- 27
2019-06-15 13:00:00 28.1 12 Sur 22 Sur 0 -- -- 28
2019-06-15 12:00:00 26.7 9 Sur 22 Sur 0 -- -- 28
2019-06-15 11:00:00 25.4 13 Sur 21 Sur 0 -- -- 35
2019-06-15 10:00:00 24.5 3 Este 12 Nordeste 0 -- -- 28
2019-06-15 09:00:00 22.8 7 Este 17 Este 0 -- -- 36
2019-06-15 08:00:00 18.9 4 Nordeste 8 Norte 0 -- -- 63
2019-06-15 07:00:00 16.1 5 Norte 9 Norte 0 -- -- 82
2019-06-15 06:00:00 16.5 2 Nordeste 7 Nordeste 0 -- -- 82
2019-06-15 05:00:00 16.8 4 Norte 9 Norte 0 -- -- 82
2019-06-15 04:00:00 16.9 5 Norte 9 Norte 0 -- -- 82
2019-06-15 03:00:00 16.3 5 Norte 9 Nordeste 0 -- -- 82
2019-06-15 02:00:00 17.2 5 Nordeste 10 Norte 0 -- -- 82
2019-06-15 01:00:00 17.1 0 Calma 7 Norte 0 -- -- 82
2019-06-15 00:00:00 17.8 0 Calma -- -- 0 -- -- 80
2019-06-14 23:00:00 18.6 0 Calma 8 Sudeste 0 -- -- 81
2019-06-14 22:00:00 19.3 9 Sur 14 Sur 0 -- -- 79
2019-06-14 21:00:00 20.8 9 Sudeste 21 Sur 0 -- -- 69
2019-06-14 20:00:00 22.9 14 Sur 27 Sur 0 -- -- 50
2019-06-14 19:00:00 23.9 14 Sur 30 Sur 0 -- -- 42
2019-06-14 18:00:00 23.9 18 Sur 31 Sur 0 -- -- 40
2019-06-14 17:00:00 25.4 17 Sur 28 Sur 0 -- -- 37
2019-06-14 16:00:00 26.1 16 Sur 26 Sur 0 -- -- 37
2019-06-14 15:00:00 26.3 13 Sur 25 Sur 0 -- -- 37
2019-06-14 14:00:00 25 11 Sur 26 Sudeste 0 -- -- 38
2019-06-14 13:00:00 23 14 Sur 28 Sur 0 -- -- 40
2019-06-14 12:00:00 24.3 4 Sudoeste 19 Sur 0 -- -- 35
2019-06-14 11:00:00 21.9 8 Sur 17 Sur 0 -- -- 39
2019-06-14 10:00:00 21.7 6 Sur 18 Sudoeste 0 -- -- 40
2019-06-14 09:00:00 22 4 Sudoeste 10 Norte 0 -- -- 39
2019-06-14 08:00:00 18 4 Norte 14 Oeste 0 -- -- 49
2019-06-14 07:00:00 17 6 Noroeste 10 Noroeste 0 -- -- 47
2019-06-14 06:00:00 16.6 6 Noroeste 12 Norte 0 -- -- 42
2019-06-14 05:00:00 16.7 7 Norte 10 Norte 0 -- -- 42
2019-06-14 04:00:00 17.1 6 Norte 14 Norte 0 -- -- 44
2019-06-14 03:00:00 17.1 7 Nordeste 13 Nordeste 0 -- -- 44
2019-06-14 02:00:00 16.2 4 Norte 12 Nordeste 0 -- -- 64
2019-06-14 01:00:00 15.8 6 Norte 11 Norte 0 -- -- 70
2019-06-14 00:00:00 16 8 Norte 12 Norte 0 -- -- 66
2019-06-13 23:00:00 16.7 6 Norte 12 Norte 0 -- -- 61
2019-06-13 22:00:00 17.6 4 Nordeste 13 Norte 0 -- -- 48
2019-06-13 21:00:00 20.3 5 Nordeste 14 Nordeste 0 -- -- 37
2019-06-13 20:00:00 21.3 9 Este 20 Sudeste 0 -- -- 31
2019-06-13 19:00:00 21.5 13 Sudeste 23 Sudeste 0 -- -- 45
2019-06-13 18:00:00 22 14 Sudeste 25 Sudeste 0 -- -- 48
2019-06-13 17:00:00 23.2 12 Sudeste 31 Sudeste 0 -- -- 48
2019-06-13 16:00:00 21.5 17 Sudeste 29 Sudeste 0 -- -- 57
2019-06-13 15:00:00 21.1 15 Sudeste 28 Sudeste 0 -- -- 60
2019-06-13 14:00:00 21.7 15 Sudeste 26 Sur 0 -- -- 60
2019-06-13 13:00:00 21.1 13 Sudeste 23 Sur 0 -- -- 63
2019-06-13 12:00:00 19.7 8 Sudeste 17 Sudeste 0 -- -- 67
2019-06-13 11:00:00 19.4 0 Calma 5 Norte 0 -- -- 60
2019-06-13 10:00:00 18.6 4 Nordeste 7 Nordeste 0 -- -- 59
2019-06-13 09:00:00 18.2 3 Nordeste 12 Norte 0 -- -- 57
2019-06-13 08:00:00 18.1 5 Nordeste 10 Nordeste 0 -- -- 51
2019-06-13 07:00:00 16.3 2 Nordeste 6 Noroeste 0 -- -- 55
2019-06-13 06:00:00 16 0 Calma 6 Norte 0 -- -- 55
2019-06-13 05:00:00 16 0 Calma -- -- 0 -- -- 54
2019-06-13 04:00:00 15.5 0 Calma -- -- 0 -- -- 58
2019-06-13 03:00:00 14.4 0 Calma 6 Nordeste 0 -- -- 64
2019-06-13 02:00:00 13.4 3 Nordeste 8 Nordeste 0 -- -- 67
2019-06-13 01:00:00 13 0 Calma 9 Noroeste 0 -- -- 69
2019-06-13 00:00:00 14.2 5 Noroeste 8 Noroeste 0 -- -- 65
2019-06-12 23:00:00 15.6 3 Sudoeste 6 Sudoeste 0 -- -- 59
2019-06-12 22:00:00 15.5 4 Sur 15 Sudoeste 0 -- -- 56
2019-06-12 21:00:00 18 10 Sur 22 Sur 0 -- -- 45
2019-06-12 20:00:00 19.4 10 Sur 22 Sur 0 -- -- 39
2019-06-12 19:00:00 20.3 13 Sur 24 Sudeste 0 -- -- 36
2019-06-12 18:00:00 21.2 14 Sur 26 Sur 0 -- -- 35
2019-06-12 17:00:00 22.5 13 Sur 28 Sur 0 -- -- 32
2019-06-12 16:00:00 22.3 13 Sur 24 Sur 0 -- -- 31
2019-06-12 15:00:00 22.6 12 Sur 29 Sudeste 0 -- -- 34
2019-06-12 14:00:00 21.9 14 Sur 28 Sur 0 -- -- 35
2019-06-12 13:00:00 22.1 14 Sur 27 Sudeste 0 -- -- 33
2019-06-12 12:00:00 21 10 Sur 23 Sudeste 0 -- -- 31
2019-06-12 11:00:00 21.5 3 Sudeste 12 Nordeste 0 -- -- 26
2019-06-12 10:00:00 20.7 3 Sudoeste 13 Oeste 0 -- -- 29
2019-06-12 09:00:00 19.3 7 Oeste 13 Noroeste 0 -- -- 34
2019-06-12 08:00:00 14.5 3 Norte 6 Norte 0 -- -- 51
2019-06-12 07:00:00 8.6 3 Norte 7 Norte 0 -- -- 75
2019-06-12 06:00:00 8.1 4 Nordeste 8 Norte 0 -- -- 74
2019-06-12 05:00:00 9.5 6 Norte 10 Norte 0 -- -- 70
2019-06-12 04:00:00 10 5 Noroeste 11 Norte 0 -- -- 69
2019-06-12 03:00:00 10.5 0 Calma 11 Noroeste 0 -- -- 68
2019-06-12 02:00:00 11 5 Norte 12 Noroeste 0 -- -- 76
2019-06-12 01:00:00 10.8 0 Calma 8 Norte 0 -- -- 80
2019-06-12 00:00:00 11.8 0 Calma 11 Norte 0 -- -- 79
2019-06-11 23:00:00 12.3 0 Calma 9 Norte 0 -- -- 80
2019-06-11 22:00:00 13.6 0 Calma 7 Este 0 -- -- 76
2019-06-11 21:00:00 16 5 Sudeste 11 Sudeste 0.1 -- -- 64
2019-06-11 20:00:00 15.6 4 Sudeste 10 Sur 0 -- -- 64
2019-06-11 19:00:00 17 2 Sudeste 8 Sudeste 0 -- -- 63
2019-06-11 18:00:00 15.7 4 Norte 17 Noroeste 0.3 -- -- 59
2019-06-11 17:00:00 17.9 9 Noroeste 22 Noroeste 0 -- -- 38
2019-06-11 16:00:00 18.4 13 Noroeste 31 Noroeste 0 -- -- 37
2019-06-11 15:00:00 20.6 14 Norte 28 Norte 0 -- -- 35
2019-06-11 14:00:00 20.8 10 Norte 25 Norte 0 -- -- 36
2019-06-11 13:00:00 20.2 12 Norte 27 Noroeste 0 -- -- 36
2019-06-11 12:00:00 20.3 11 Nordeste 22 Nordeste 0 -- -- 37
2019-06-11 11:00:00 17.7 13 Nordeste 48 Nordeste 0 -- -- 40
2019-06-11 10:00:00 17 13 Nordeste 26 Nordeste 0 -- -- 40
2019-06-11 09:00:00 17.1 13 Nordeste 25 Nordeste 0 -- -- 39
2019-06-11 08:00:00 16.9 14 Nordeste 25 Este 0 -- -- 39
2019-06-11 07:00:00 17.3 7 Nordeste 15 Norte 0 -- -- 39
2019-06-11 06:00:00 16.5 6 Norte 12 Norte 0 -- -- 42
2019-06-11 05:00:00 15.4 6 Norte 9 Norte 0 -- -- 52
2019-06-11 04:00:00 14.8 0 Calma 9 Norte 0 -- -- 62
2019-06-11 03:00:00 15.7 5 Norte 10 Norte 0 -- -- 57
2019-06-11 02:00:00 16.8 5 Norte 8 Noroeste 0 -- -- 51
2019-06-11 01:00:00 18.6 3 Nordeste 9 Noroeste 0 -- -- 56
2019-06-11 00:00:00 19.2 6 Norte 20 Norte 0 -- -- 59
2019-06-10 23:00:00 19.1 8 Sudoeste 18 Sudoeste 0.1 -- -- 75
2019-06-10 22:00:00 21.8 5 Sur 13 Oeste 0 -- -- 47
2019-06-10 21:00:00 21.8 4 Sur 13 Sur 0 -- -- 53
2019-06-10 20:00:00 21.9 7 Sur 16 Sur 0 -- -- 51
2019-06-10 19:00:00 22.9 10 Sur 21 Sudeste 0 -- -- 48
2019-06-10 18:00:00 24 11 Sur 24 Sur 0 -- -- 43
2019-06-10 17:00:00 23.7 14 Sur 27 Sur 0 -- -- 38
2019-06-10 16:00:00 25.6 15 Sur 28 Sudeste 0 -- -- 33
2019-06-10 15:00:00 27.5 13 Sur 30 Sur 0 -- -- 31
2019-06-10 14:00:00 27.9 13 Sur 28 Sur 0 -- -- 30
2019-06-10 13:00:00 28.1 2 Sudoeste 19 Oeste 0 -- -- 29
2019-06-10 12:00:00 28 4 Noroeste 17 Este 0 -- -- 29
2019-06-10 11:00:00 27 3 Sudeste 11 Este 0 -- -- 31
2019-06-10 10:00:00 24.9 2 Este 10 Nordeste 0 -- -- 34
2019-06-10 09:00:00 22.8 3 Nordeste 8 Norte 0 -- -- 39
2019-06-10 08:00:00 19.9 2 Norte 8 Norte 0 -- -- 51
2019-06-10 07:00:00 15.5 5 Nordeste 9 Nordeste 0 -- -- 61
2019-06-10 06:00:00 14.1 4 Nordeste 8 Nordeste 0 -- -- 65
2019-06-10 05:00:00 13.8 4 Nordeste 11 Noroeste 0 -- -- 65
2019-06-10 04:00:00 14.3 3 Nordeste 16 Nordeste 0 -- -- 57
2019-06-10 03:00:00 15.3 7 Norte 11 Norte 0 -- -- 52
2019-06-10 02:00:00 15.5 6 Nordeste 10 Nordeste 0 -- -- 54
2019-06-10 01:00:00 15.6 4 Nordeste 13 Norte 0 -- -- 53
2019-06-10 00:00:00 16.4 4 Nordeste 9 Nordeste 0 -- -- 52
2019-06-09 23:00:00 17.8 4 Nordeste 6 Sudeste 0 -- -- 50
2019-06-09 22:00:00 18.7 3 Sudeste 11 Sur 0 -- -- 43
2019-06-09 21:00:00 20.5 9 Sur 18 Sur 0 -- -- 32
2019-06-09 20:00:00 23.1 9 Sur 22 Sudoeste 0 -- -- 27
2019-06-09 19:00:00 24.9 5 Sudoeste 13 Sudoeste 0 -- -- 23
2019-06-09 18:00:00 24.2 7 Sudoeste 13 Sudoeste 0 -- -- 25
2019-06-09 17:00:00 25 0 Calma 19 Sur 0 -- -- 24
2019-06-09 16:00:00 24 8 Sur 17 Sudoeste 0 -- -- 26
2019-06-09 15:00:00 22.7 8 Sudoeste 14 Sudoeste 0 -- -- 26
2019-06-09 14:00:00 23.3 3 Oeste 17 Oeste 0 -- -- 28
2019-06-09 13:00:00 22.4 7 Oeste 10 Oeste 0 -- -- 28
2019-06-09 12:00:00 22.9 2 Norte 9 Sur 0 -- -- 29
2019-06-09 11:00:00 23.5 2 Nordeste 8 Noroeste 0 -- -- 30
2019-06-09 10:00:00 23.2 5 Nordeste 9 Nordeste 0 -- -- 38
2019-06-09 09:00:00 18.7 5 Norte 11 Nordeste 0 -- -- 47
2019-06-09 08:00:00 16.8 6 Nordeste 10 Nordeste 0 -- -- 52
2019-06-09 07:00:00 16.2 5 Nordeste 15 Norte 0 -- -- 54
2019-06-09 06:00:00 15.3 6 Nordeste 13 Norte 0 -- -- 61
2019-06-09 05:00:00 15.3 5 Norte 10 Norte 0 -- -- 61
2019-06-09 04:00:00 15.4 7 Norte 13 Norte 0 -- -- 55
2019-06-09 03:00:00 15.8 6 Norte 13 Norte 0 -- -- 51
2019-06-09 02:00:00 16.2 7 Norte 11 Norte 0 -- -- 51
2019-06-09 01:00:00 17 6 Nordeste 10 Nordeste 0 -- -- 54
2019-06-09 00:00:00 16.8 6 Norte 9 Norte 0 -- -- 51
2019-06-08 23:00:00 17.9 3 Nordeste 7 Noroeste 0 -- -- 51
2019-06-08 22:00:00 18.9 0 Calma 4 Sudoeste 0 -- -- 45
2019-06-08 21:00:00 19.8 2 Sudoeste 7 Sur 0 -- -- 45
2019-06-08 20:00:00 20.7 4 Sur 15 Sur 0 -- -- 41
2019-06-08 19:00:00 21.9 7 Sur 24 Sudeste 0 -- -- 37
2019-06-08 18:00:00 22.8 11 Sudeste 26 Sur 0 -- -- 35
2019-06-08 17:00:00 23.5 13 Sur 28 Sudeste 0 -- -- 33
2019-06-08 16:00:00 24 15 Sur 29 Sudeste 0 -- -- 35
2019-06-08 15:00:00 24.1 16 Sudeste 34 Sur 0 -- -- 36
2019-06-08 14:00:00 23.5 14 Sudeste 28 Sur 0 -- -- 32
2019-06-08 13:00:00 23.5 12 Sur 24 Sur 0 -- -- 34
2019-06-08 12:00:00 23 10 Sur 24 Sur 0 -- -- 35
2019-06-08 11:00:00 23.4 10 Sur 24 Sur 0 -- -- 34
2019-06-08 10:00:00 22.3 10 Sudeste 18 Sudeste 0 -- -- 37
2019-06-08 09:00:00 21.1 4 Este 10 Este 0 -- -- 46
2019-06-08 08:00:00 20.3 4 Nordeste 8 Nordeste 0 -- -- 61
2019-06-08 07:00:00 15.9 5 Nordeste 10 Nordeste 0 -- -- 76
2019-06-08 06:00:00 16.3 6 Nordeste 9 Norte 0 -- -- 75
2019-06-08 05:00:00 17.9 5 Nordeste 26 Este 0 -- -- 69
2019-06-08 04:00:00 18.4 9 Este 22 Este 0 -- -- 72
2019-06-08 03:00:00 15.5 8 Nordeste 15 Norte 0 -- -- 51
2019-06-08 02:00:00 14.8 9 Norte 13 Noroeste 0 -- -- 47
2019-06-08 01:00:00 15.3 5 Norte 15 Norte 0 -- -- 47
2019-06-08 00:00:00 16.2 5 Nordeste 9 Norte 0 -- -- 52
2019-06-07 23:00:00 18.4 4 Nordeste 6 Norte 0 -- -- 61
2019-06-07 22:00:00 19.7 0 Calma 8 Sur 0 -- -- 53
2019-06-07 21:00:00 21.9 6 Sur 12 Sur 0 -- -- 43
2019-06-07 20:00:00 24.3 8 Sur 16 Sur 0 -- -- 37
2019-06-07 19:00:00 25.1 9 Sur 19 Sur 0 -- -- 36
2019-06-07 18:00:00 24.9 13 Sur 24 Sur 0 -- -- 37
2019-06-07 17:00:00 26 12 Sur 22 Sudeste 0 -- -- 36
2019-06-07 16:00:00 24.5 13 Sur 25 Sudeste 0 -- -- 41
2019-06-07 15:00:00 26 10 Sur 21 Sur 0 -- -- 38
2019-06-07 14:00:00 25.4 10 Sur 22 Sur 0 -- -- 43
2019-06-07 13:00:00 25.2 13 Sur 25 Sudeste 0 -- -- 47
2019-06-07 12:00:00 23.4 18 Sudeste 28 Sudeste 0 -- -- 48
2019-06-07 11:00:00 25 10 Sur 22 Sur 0 -- -- 45
2019-06-07 10:00:00 22.3 9 Oeste 18 Sudoeste 0 -- -- 48
2019-06-07 09:00:00 20.8 5 Oeste 10 Oeste 0 -- -- 60
2019-06-07 08:00:00 19.4 3 Noroeste 12 Noroeste 0 -- -- 67
2019-06-07 07:00:00 14.9 5 Noroeste 10 Noroeste 0 -- -- 82
2019-06-07 06:00:00 15 5 Noroeste 11 Noroeste 0 -- -- 82
2019-06-07 05:00:00 15.8 4 Oeste 7 Oeste 0 -- -- 82
2019-06-07 04:00:00 16.9 2 Sudeste 6 Sudoeste 0 -- -- 82
2019-06-07 03:00:00 17.7 0 Calma 7 Sudeste 0 -- -- 82
2019-06-07 02:00:00 17.6 5 Sudeste 7 Sudeste 0 -- -- 82
2019-06-07 01:00:00 18.2 4 Sudeste 11 Sur 0 -- -- 82
2019-06-07 00:00:00 18 5 Sudeste 12 Sudeste 0 -- -- 82
2019-06-06 23:00:00 19 5 Sudeste 12 Sudeste 0 -- -- 81
2019-06-06 22:00:00 19.4 4 Sudeste 13 Sudeste 0 -- -- 78
2019-06-06 21:00:00 19.7 9 Sudeste 16 Sudeste 0 -- -- 75
2019-06-06 20:00:00 20.1 10 Sudeste 19 Sudeste 0 -- -- 69
2019-06-06 19:00:00 21.8 12 Sudeste 24 Sur 0 -- -- 55
2019-06-06 18:00:00 22.7 13 Sur 29 Sudeste 0 -- -- 50
2019-06-06 17:00:00 24 14 Sur 34 Sudeste 0 -- -- 38
2019-06-06 16:00:00 23.8 16 Sudeste 28 Sudeste 0 -- -- 36
2019-06-06 15:00:00 24.7 14 Sudeste 28 Sudeste 0 -- -- 34
2019-06-06 14:00:00 23.9 14 Sudeste 31 Este 0 -- -- 37
2019-06-06 13:00:00 23.3 14 Este 29 Este 0 -- -- 35
2019-06-06 12:00:00 22.9 12 Sudeste 23 Sudeste 0 -- -- 35
2019-06-06 11:00:00 22.1 12 Este 21 Este 0 -- -- 36
2019-06-06 10:00:00 22.2 5 Este 14 Este 0 -- -- 36
2019-06-06 09:00:00 20.4 0 Calma 8 Noroeste 0 -- -- 43
2019-06-06 08:00:00 17.5 4 Noroeste 10 Noroeste 0 -- -- 50
2019-06-06 07:00:00 12.3 5 Noroeste 12 Noroeste 0 -- -- 74
2019-06-06 06:00:00 12.2 7 Noroeste 10 Norte 0 -- -- 71
2019-06-06 05:00:00 13.8 5 Norte 13 Oeste 0 -- -- 61
2019-06-06 04:00:00 13.6 9 Noroeste 12 Noroeste 0 -- -- 62
2019-06-06 03:00:00 14.7 4 Norte 9 Norte 0 -- -- 55
2019-06-06 02:00:00 16.1 9 Norte 17 Noroeste 0 -- -- 47
2019-06-06 01:00:00 16.4 8 Noroeste 14 Noroeste 0 -- -- 45
2019-06-06 00:00:00 18.2 8 Noroeste 19 Noroeste 0 -- -- 40
2019-06-05 23:00:00 17.7 11 Norte 20 Norte 0 -- -- 42
2019-06-05 22:00:00 18 8 Noroeste 17 Noroeste 0 -- -- 39
2019-06-05 21:00:00 20.7 8 Norte 30 Noroeste 0 -- -- 30
2019-06-05 20:00:00 22 19 Noroeste 34 Noroeste 0 -- -- 28
2019-06-05 19:00:00 23.4 14 Noroeste 35 Noroeste 0 -- -- 27
2019-06-05 18:00:00 22.8 17 Norte 51 Noroeste 0 -- -- 28
2019-06-05 17:00:00 22.6 23 Noroeste 50 Noroeste 0 -- -- 30
2019-06-05 16:00:00 22.3 20 Noroeste 40 Noroeste 0 -- -- 40
2019-06-05 15:00:00 18.6 4 Nordeste 22 Nordeste 4.8 -- -- 80
2019-06-05 14:00:00 17.1 13 Norte 32 Nordeste 2.7 -- -- 79
2019-06-05 13:00:00 25.1 12 Sudeste 24 Sur 0 -- -- 47
2019-06-05 12:00:00 22.1 9 Sudeste 21 Este 0 -- -- 53
2019-06-05 11:00:00 23.6 4 Este 10 Nordeste 0 -- -- 50
2019-06-05 10:00:00 20.7 3 Nordeste 8 Noroeste 0 -- -- 66
2019-06-05 09:00:00 19.8 5 Nordeste 9 Nordeste 0 -- -- 67
2019-06-05 08:00:00 19.3 4 Norte 7 Norte 0 -- -- 72
2019-06-05 07:00:00 18.7 4 Nordeste 8 Norte 0 -- -- 76
2019-06-05 06:00:00 17.9 4 Norte 9 Nordeste 0 -- -- 79
2019-06-05 05:00:00 17 6 Nordeste 10 Norte 0 -- -- 81
2019-06-05 04:00:00 17.3 8 Norte 12 Norte 0 -- -- 81
2019-06-05 03:00:00 17.1 4 Noroeste 7 Norte 0 -- -- 82
2019-06-05 02:00:00 16.4 0 Calma 5 Oeste 0 -- -- 81
2019-06-05 01:00:00 17.1 0 Calma 4 Noroeste 0 -- -- 81
2019-06-05 00:00:00 17 2 Norte 4 Sur 0 -- -- 81
2019-06-04 23:00:00 18 4 Sur 5 Sur 0 -- -- 81
2019-06-04 22:00:00 18.4 2 Sudeste 8 Sudeste 0 -- -- 79
2019-06-04 21:00:00 19.3 6 Sudeste 21 Sudeste 0 -- -- 75
2019-06-04 20:00:00 21.2 12 Sudeste 27 Sudeste 0 -- -- 64
2019-06-04 19:00:00 22 15 Este 26 Este 0 -- -- 59
2019-06-04 18:00:00 23.1 14 Sudeste 26 Este 0 -- -- 52
2019-06-04 17:00:00 23.6 13 Sudeste 28 Sudeste 0 -- -- 50
2019-06-04 16:00:00 25 14 Sudeste 29 Sudeste 0 -- -- 49
2019-06-04 15:00:00 24 14 Sudeste 28 Sudeste 0 -- -- 50
2019-06-04 14:00:00 24.7 15 Este 28 Este 0 -- -- 50
2019-06-04 13:00:00 24 14 Este 23 Este 0 -- -- 50
2019-06-04 12:00:00 22.8 11 Este 21 Este 0 -- -- 55
2019-06-04 11:00:00 22.1 11 Este 21 Sudeste 0 -- -- 53
2019-06-04 10:00:00 21.3 6 Sudeste 14 Sudeste 0 -- -- 55
2019-06-04 09:00:00 21.1 2 Este 8 Noroeste 0 -- -- 50
2019-06-04 08:00:00 17.8 2 Noroeste 6 Noroeste 0 -- -- 48
2019-06-04 07:00:00 15.1 4 Noroeste 6 Noroeste 0 -- -- 64
2019-06-04 06:00:00 13 4 Noroeste 6 Noroeste 0 -- -- 68
2019-06-04 05:00:00 13.1 4 Oeste 5 Oeste 0 -- -- 70
2019-06-04 04:00:00 13.7 3 Noroeste 4 Noroeste 0 -- -- 68
2019-06-04 03:00:00 14.3 3 Noroeste 5 Oeste 0 -- -- 70
2019-06-04 02:00:00 15.1 0 Calma 5 Oeste 0 -- -- 81
2019-06-04 01:00:00 16.2 0 Calma 5 Sudeste 0 -- -- 81
2019-06-04 00:00:00 17.3 4 Sudeste 9 Sudeste 0 -- -- 80
2019-06-03 23:00:00 18 6 Sudeste 13 Sudeste 0 -- -- 79
2019-06-03 22:00:00 18.9 8 Sudeste 14 Sudeste 0 -- -- 73
2019-06-03 21:00:00 20.4 8 Sudeste 19 Sur 0 -- -- 57
2019-06-03 20:00:00 22.1 11 Sur 27 Sudeste 0 -- -- 47
2019-06-03 19:00:00 22.5 13 Sur 29 Sudeste 0 -- -- 49
2019-06-03 18:00:00 23.8 17 Sur 33 Sur 0 -- -- 38
2019-06-03 17:00:00 24 18 Sur 33 Sur 0 -- -- 38
2019-06-03 16:00:00 25.5 19 Sur 34 Sur 0 -- -- 41
2019-06-03 15:00:00 25.8 16 Sudeste 29 Sudeste 0 -- -- 47
2019-06-03 14:00:00 25.2 15 Sudeste 28 Sudeste 0 -- -- 48
2019-06-03 13:00:00 25.8 13 Sudeste 26 Sudeste 0 -- -- 49
2019-06-03 12:00:00 25.3 13 Sudeste 24 Este 0 -- -- 50
2019-06-03 11:00:00 24 12 Sudeste 23 Sudeste 0 -- -- 53
2019-06-03 10:00:00 23.4 8 Sudeste 17 Sur 0 -- -- 51
2019-06-03 09:00:00 20.3 5 Sudeste 11 Sudeste 0 -- -- 48
2019-06-03 08:00:00 19.7 0 Calma 6 Norte 0 -- -- 45
2019-06-03 07:00:00 14.6 5 Norte 8 Norte 0 -- -- 60
2019-06-03 06:00:00 13.8 4 Noroeste 7 Norte 0 -- -- 63
2019-06-03 05:00:00 14.1 0 Calma 7 Norte 0 -- -- 60
2019-06-03 04:00:00 13.9 4 Noroeste 8 Oeste 0 -- -- 62
2019-06-03 03:00:00 14.7 4 Noroeste 7 Noroeste 0 -- -- 61
2019-06-03 02:00:00 15.6 0 Calma 5 Sur 0 -- -- 64
2019-06-03 01:00:00 17.3 4 Sur 10 Sudeste 0 -- -- 57
2019-06-03 00:00:00 17.3 7 Sur 9 Sur 0 -- -- 52
2019-06-02 23:00:00 18.3 7 Sudeste 12 Sur 0 -- -- 52
2019-06-02 22:00:00 19.2 5 Sudeste 13 Sur 0 -- -- 55
2019-06-02 21:00:00 21 9 Sur 21 Sur 0 -- -- 45
2019-06-02 20:00:00 23.3 14 Sur 28 Sur 0 -- -- 39
2019-06-02 19:00:00 24.3 17 Sur 34 Sur 0 -- -- 34
2019-06-02 18:00:00 25 21 Sur 33 Sur 0 -- -- 31
2019-06-02 17:00:00 25.7 19 Sur 34 Sudeste 0 -- -- 31
2019-06-02 16:00:00 26.7 19 Sur 34 Sur 0 -- -- 33
2019-06-02 15:00:00 25.9 17 Sur 29 Sudeste 0 -- -- 35
2019-06-02 14:00:00 26.8 15 Sudeste 28 Sur 0 -- -- 38
2019-06-02 13:00:00 25.1 16 Sur 29 Sur 0 -- -- 40
2019-06-02 12:00:00 25.1 13 Sur 26 Sudeste 0 -- -- 38
2019-06-02 11:00:00 23.9 10 Sur 18 Sur 0 -- -- 34
2019-06-02 10:00:00 24.1 8 Sur 16 Sudeste 0 -- -- 32
2019-06-02 09:00:00 22.5 3 Sudeste 8 Nordeste 0 -- -- 34
2019-06-02 08:00:00 18.8 3 Nordeste 8 Nordeste 0 -- -- 43
2019-06-02 07:00:00 13.7 6 Nordeste 9 Nordeste 0 -- -- 58
2019-06-02 06:00:00 13.6 6 Nordeste 8 Nordeste 0 -- -- 58
2019-06-02 05:00:00 13.5 3 Norte 8 Nordeste 0 -- -- 58
2019-06-02 04:00:00 13.7 6 Nordeste 8 Nordeste 0 -- -- 58
2019-06-02 03:00:00 13.7 3 Nordeste 6 Norte 0 -- -- 60
2019-06-02 02:00:00 15.2 2 Norte 5 Nordeste 0 -- -- 64
2019-06-02 01:00:00 15.3 3 Norte 6 Noroeste 0 -- -- 69
2019-06-02 00:00:00 16.7 5 Sur 11 Sur 0 -- -- 64
2019-06-01 23:00:00 17.3 6 Sur 11 Sudeste 0 -- -- 64
2019-06-01 22:00:00 18.3 7 Sur 10 Sur 0 -- -- 53
2019-06-01 21:00:00 20.9 7 Sur 18 Sur 0 -- -- 40
2019-06-01 20:00:00 23.4 13 Sur 23 Sur 0 -- -- 33
2019-06-01 19:00:00 24.6 15 Sur 28 Sur 0 -- -- 32
2019-06-01 18:00:00 25.2 15 Sur 29 Sudeste 0 -- -- 33
2019-06-01 17:00:00 25 19 Sur 33 Sur 0 -- -- 34
2019-06-01 16:00:00 25.5 16 Sur 33 Sudeste 0 -- -- 34
2019-06-01 15:00:00 25.8 15 Sudeste 31 Sudeste 0 -- -- 35
2019-06-01 14:00:00 26.6 14 Sudeste 28 Sudeste 0 -- -- 32
2019-06-01 13:00:00 25.9 14 Sudeste 24 Sudeste 0 -- -- 35
2019-06-01 12:00:00 25.3 13 Sudeste 25 Sudeste 0 -- -- 34
2019-06-01 11:00:00 24.5 11 Sudeste 21 Sudeste 0 -- -- 39
2019-06-01 10:00:00 22.1 12 Este 19 Este 0 -- -- 48
2019-06-01 09:00:00 22.7 5 Este 10 Sudeste 0 -- -- 40
2019-06-01 08:00:00 18.9 3 Norte 8 Norte 0 -- -- 50
2019-06-01 07:00:00 14.6 5 Noroeste 9 Norte 0 -- -- 65
2019-06-01 06:00:00 14.2 6 Noroeste 9 Norte 0 -- -- 66
2019-06-01 05:00:00 14.2 6 Noroeste 8 Noroeste 0 -- -- 64
2019-06-01 04:00:00 14.6 5 Norte 8 Noroeste 0 -- -- 63
2019-06-01 03:00:00 14.8 5 Norte 8 Noroeste 0 -- -- 65
2019-06-01 02:00:00 15.7 4 Noroeste 7 Oeste 0 -- -- 61
2019-06-01 01:00:00 15.6 3 Noroeste 6 Norte 0 -- -- 60
2019-06-01 00:00:00 16.8 0 Calma 7 Sudeste 0 -- -- 54
2019-05-31 23:00:00 17.5 5 Este 7 Este 0 -- -- 48
2019-05-31 22:00:00 18.4 5 Este 9 Este 0 -- -- 45
2019-05-31 21:00:00 20.6 7 Sudeste 19 Sudeste 0 -- -- 39
2019-05-31 20:00:00 22.7 12 Sudeste 25 Sudeste 0 -- -- 36
2019-05-31 19:00:00 23.1 17 Sudeste 27 Sur 0 -- -- 36
2019-05-31 18:00:00 23.4 16 Sudeste 30 Sudeste 0 -- -- 38
2019-05-31 17:00:00 24.6 16 Sudeste 34 Sudeste 0 -- -- 38
2019-05-31 16:00:00 25.2 16 Sudeste 30 Sudeste 0 -- -- 38
2019-05-31 15:00:00 25.1 15 Sudeste 31 Sudeste 0 -- -- 40
2019-05-31 14:00:00 25.7 15 Sudeste 31 Este 0 -- -- 38
2019-05-31 13:00:00 25.4 15 Sudeste 27 Sudeste 0 -- -- 37
2019-05-31 12:00:00 25.6 13 Sudeste 25 Sudeste 0 -- -- 40
2019-05-31 11:00:00 25.4 10 Sudeste 19 Sudeste 0 -- -- 34
2019-05-31 10:00:00 25 0 Calma 9 Noroeste 0 -- -- 32
2019-05-31 09:00:00 21.1 5 Noroeste 12 Noroeste 0 -- -- 55
2019-05-31 08:00:00 16.7 6 Norte 12 Noroeste 0 -- -- 68
2019-05-31 07:00:00 12.9 5 Norte 11 Norte 0 -- -- 80
2019-05-31 06:00:00 12.2 5 Norte 8 Norte 0 -- -- 79
2019-05-31 05:00:00 12.1 5 Noroeste 6 Noroeste 0 -- -- 77
2019-05-31 04:00:00 13.3 4 Norte 8 Noroeste 0 -- -- 74
2019-05-31 03:00:00 14 0 Calma 4 Noroeste 0 -- -- 72
2019-05-31 02:00:00 14.9 0 Calma 8 Norte 0 -- -- 72
2019-05-31 01:00:00 15.3 5 Noroeste 8 Noroeste 0 -- -- 66
2019-05-31 00:00:00 16.6 0 Calma 10 Este 0 -- -- 61
2019-05-30 23:00:00 16.8 6 Sudeste 12 Este 0 -- -- 60
2019-05-30 22:00:00 17.4 6 Sudeste 11 Sudeste 0 -- -- 57
2019-05-30 21:00:00 20.2 9 Sudeste 22 Sudeste 0 -- -- 41
2019-05-30 20:00:00 22.1 13 Sudeste 27 Sur 0 -- -- 36
2019-05-30 19:00:00 23.1 14 Sudeste 28 Sur 0 -- -- 33
2019-05-30 18:00:00 24 17 Sudeste 29 Sudeste 0 -- -- 32
2019-05-30 17:00:00 25 15 Sudeste 27 Sudeste 0 -- -- 31
2019-05-30 16:00:00 24.3 14 Sudeste 26 Sudeste 0 -- -- 31
2019-05-30 15:00:00 24.5 14 Sudeste 26 Sudeste 0 -- -- 33
2019-05-30 14:00:00 23.5 14 Sudeste 26 Sudeste 0 -- -- 36
2019-05-30 13:00:00 24.2 12 Este 22 Este 0 -- -- 39
2019-05-30 12:00:00 23.6 12 Este 21 Sudeste 0 -- -- 37
2019-05-30 11:00:00 23.9 10 Sudeste 19 Sudeste 0 -- -- 37
2019-05-30 10:00:00 21 5 Sudeste 12 Sudeste 0 -- -- 37
2019-05-30 09:00:00 20.2 3 Sudeste 7 Noroeste 0 -- -- 45
2019-05-30 08:00:00 17.7 5 Noroeste 9 Noroeste 0 -- -- 57
2019-05-30 07:00:00 12.8 4 Norte 9 Norte 0 -- -- 79
2019-05-30 06:00:00 13.3 4 Norte 11 Noroeste 0 -- -- 78
2019-05-30 05:00:00 13.6 7 Noroeste 12 Noroeste 0 -- -- 76
2019-05-30 04:00:00 14.3 6 Nordeste 15 Norte 0 -- -- 74
2019-05-30 03:00:00 14.2 8 Norte 14 Norte 0 -- -- 73
2019-05-30 02:00:00 14.9 7 Nordeste 12 Este 0 -- -- 58
2019-05-30 01:00:00 14.9 6 Norte 8 Norte 0 -- -- 59
2019-05-30 00:00:00 15.7 0 Calma 0 Calma 0 -- -- 58
2019-05-29 23:00:00 16.2 0 Calma 6 Este 0 -- -- 51
2019-05-29 22:00:00 17.4 0 Calma 8 Sudeste 0 -- -- 45
2019-05-29 21:00:00 19 5 Sudeste 21 Sudoeste 0 -- -- 41
2019-05-29 20:00:00 21.3 9 Sudoeste 24 Sur 0 -- -- 38
2019-05-29 19:00:00 21.3 14 Sur 23 Sur 0 -- -- 35
2019-05-29 18:00:00 23.1 14 Sur 28 Sudeste 0 -- -- 34
2019-05-29 17:00:00 25.5 4 Este 24 Noroeste 0 -- -- 27
2019-05-29 16:00:00 26.9 9 Norte 25 Noroeste 0 -- -- 25
2019-05-29 15:00:00 25.6 9 Noroeste 23 Sudoeste 0 -- -- 25
2019-05-29 14:00:00 26.3 12 Noroeste 32 Oeste 0 -- -- 26
2019-05-29 13:00:00 25.9 11 Noroeste 32 Noroeste 0 -- -- 27
2019-05-29 12:00:00 24.6 8 Norte 32 Norte 0 -- -- 28
2019-05-29 11:00:00 23 18 Noroeste 40 Noroeste 0 -- -- 31
2019-05-29 10:00:00 20.8 20 Noroeste 37 Noroeste 0 -- -- 33
2019-05-29 09:00:00 19.8 18 Noroeste 40 Noroeste 0 -- -- 35
2019-05-29 08:00:00 17.5 16 Noroeste 31 Noroeste 0 -- -- 39
2019-05-29 07:00:00 14.9 12 Noroeste 38 Noroeste 0 -- -- 40
2019-05-29 06:00:00 15.4 22 Noroeste 56 Noroeste 0 -- -- 39
2019-05-29 05:00:00 15.8 27 Noroeste 50 Norte 0 -- -- 37
2019-05-29 04:00:00 16.5 24 Noroeste 43 Noroeste 0 -- -- 35
2019-05-29 03:00:00 16.5 18 Noroeste 49 Oeste 0 -- -- 35
2019-05-29 02:00:00 17 23 Noroeste 52 Oeste 0 -- -- 34
2019-05-29 01:00:00 17.3 30 Noroeste 63 Noroeste 0 -- -- 33
2019-05-29 00:00:00 18.6 19 Norte 59 Noroeste 0 -- -- 32
2019-05-28 23:00:00 21 22 Noroeste 52 Noroeste 0 -- -- 33
2019-05-28 22:00:00 19 31 Noroeste 51 Norte 0 -- -- 32
2019-05-28 21:00:00 20.9 13 Noroeste 35 Noroeste 0 -- -- 29
2019-05-28 20:00:00 22.6 20 Noroeste 41 Noroeste 0 -- -- 27
2019-05-28 19:00:00 24.7 14 Norte 32 Noroeste 0 -- -- 25
2019-05-28 18:00:00 25.6 18 Noroeste 44 Oeste 0 -- -- 25
2019-05-28 17:00:00 26.7 18 Noroeste 38 Noroeste 0 -- -- 25
2019-05-28 16:00:00 28.6 15 Noroeste 35 Norte 0 -- -- 23
2019-05-28 15:00:00 27.9 13 Noroeste 33 Oeste 0 -- -- 23
2019-05-28 14:00:00 27.5 13 Noroeste 31 Oeste 0 -- -- 25
2019-05-28 13:00:00 25.6 12 Noroeste 32 Noroeste 0 -- -- 26
2019-05-28 12:00:00 24.1 19 Noroeste 35 Oeste 0 -- -- 28
2019-05-28 11:00:00 23.4 16 Noroeste 33 Noroeste 0 -- -- 29
2019-05-28 10:00:00 20.7 24 Noroeste 35 Oeste 0 -- -- 34
2019-05-28 09:00:00 18.8 20 Noroeste 40 Norte 0 -- -- 37
2019-05-28 08:00:00 17.7 20 Noroeste 41 Noroeste 0 -- -- 39
2019-05-28 07:00:00 15.6 16 Noroeste 31 Oeste 0 -- -- 41
2019-05-28 06:00:00 15.7 18 Noroeste 32 Noroeste 0 -- -- 40
2019-05-28 05:00:00 16.7 19 Noroeste 33 Noroeste 0 -- -- 40
2019-05-28 04:00:00 16.5 10 Noroeste 36 Noroeste 0 -- -- 43
2019-05-28 03:00:00 18.2 17 Noroeste 35 Noroeste 0 -- -- 42
2019-05-28 02:00:00 19.1 17 Norte 35 Noroeste 0 -- -- 39
2019-05-28 01:00:00 20.1 10 Norte 25 Noroeste 0 -- -- 43
2019-05-28 00:00:00 20.8 16 Noroeste 27 Noroeste 0 -- -- 45
2019-05-27 23:00:00 18.5 7 Sudeste 13 Nordeste 0 -- -- 55
2019-05-27 22:00:00 18.4 4 Sudeste 17 Sur 0 -- -- 57
2019-05-27 21:00:00 19.6 8 Sur 17 Sur 0 -- -- 47
2019-05-27 20:00:00 22.1 11 Sur 21 Sur 0 -- -- 40
2019-05-27 19:00:00 23.3 10 Sudoeste 23 Sur 0 -- -- 38
2019-05-27 18:00:00 23.9 15 Sur 23 Sur 0 -- -- 38
2019-05-27 17:00:00 25.5 12 Sur 24 Sur 0 -- -- 35
2019-05-27 16:00:00 24.8 12 Sur 26 Sur 0 -- -- 35
2019-05-27 15:00:00 24.4 12 Sur 27 Sudoeste 0 -- -- 35
2019-05-27 14:00:00 24.7 14 Sur 25 Sur 0 -- -- 35
2019-05-27 13:00:00 24.9 10 Sur 23 Sudeste 0 -- -- 34
2019-05-27 12:00:00 25.1 10 Sur 19 Sur 0 -- -- 34
2019-05-27 11:00:00 25 10 Norte 24 Norte 0 -- -- 32
2019-05-27 10:00:00 22.8 6 Nordeste 14 Nordeste 0 -- -- 36
2019-05-27 09:00:00 20.8 4 Nordeste 12 Este 0 -- -- 43
2019-05-27 08:00:00 17.1 5 Nordeste 14 Norte 0 -- -- 52
2019-05-27 07:00:00 14.5 6 Norte 13 Norte 0 -- -- 62
2019-05-27 06:00:00 13.3 6 Nordeste 12 Norte 0 -- -- 66
2019-05-27 05:00:00 14.6 4 Nordeste 14 Noroeste 0 -- -- 58
2019-05-27 04:00:00 16.1 9 Norte 18 Norte 0 -- -- 52
2019-05-27 03:00:00 16.6 10 Noroeste 36 Norte 0 -- -- 49
2019-05-27 02:00:00 17.6 13 Noroeste 18 Noroeste 0 -- -- 48
2019-05-27 01:00:00 18.1 10 Noroeste 16 Norte 0 -- -- 47
2019-05-27 00:00:00 20.5 9 Norte 16 Norte 0 -- -- 45